createdAt,value
2022-09-09T00:00:26.560Z,99.90
2022-09-09T00:03:05.955Z,99.90
2022-09-09T00:05:45.246Z,99.90
2022-09-09T00:08:25.714Z,99.90
2022-09-09T00:11:02.524Z,99.90
2022-09-09T00:13:40.867Z,99.90
2022-09-09T00:16:20.114Z,99.90
2022-09-09T00:19:05.064Z,99.90
2022-09-09T00:21:36.728Z,99.90
2022-09-09T00:24:19.886Z,99.90
2022-09-09T00:26:51.966Z,99.90
2022-09-09T00:29:28.185Z,99.90
2022-09-09T00:32:00.852Z,99.90
2022-09-09T00:34:29.798Z,99.90
2022-09-09T00:36:57.639Z,99.90
2022-09-09T00:39:37.967Z,99.90
2022-09-09T00:42:33.885Z,99.90
2022-09-09T00:45:32.449Z,99.90
2022-09-09T00:48:07.505Z,99.90
2022-09-09T00:51:07.330Z,99.90
2022-09-09T00:53:50.189Z,99.90
2022-09-09T00:56:29.919Z,99.90
2022-09-09T00:59:16.673Z,99.90
2022-09-09T01:01:44.050Z,99.90
2022-09-09T01:04:17.497Z,99.90
2022-09-09T01:06:53.133Z,99.90
2022-09-09T01:09:28.700Z,99.90
2022-09-09T01:12:14.021Z,99.90
2022-09-09T01:14:49.726Z,99.90
2022-09-09T01:17:23.559Z,99.90
2022-09-09T01:20:18.017Z,99.90
2022-09-09T01:23:04.696Z,99.90
2022-09-09T01:26:29.378Z,99.90
2022-09-09T01:29:00.564Z,99.90
2022-09-09T01:31:42.355Z,99.90
2022-09-09T01:34:15.312Z,99.90
2022-09-09T01:37:06.414Z,99.90
2022-09-09T01:39:35.918Z,99.90
2022-09-09T01:42:09.956Z,99.90
2022-09-09T01:44:38.417Z,99.90
2022-09-09T01:47:07.653Z,99.90
2022-09-09T01:49:38.883Z,99.90
2022-09-09T01:52:14.453Z,99.90
2022-09-09T01:54:41.987Z,99.90
2022-09-09T01:57:17.726Z,99.90
2022-09-09T02:00:19.229Z,99.90
2022-09-09T02:03:20.923Z,99.90
2022-09-09T02:06:37.334Z,99.90
2022-09-09T02:09:19.963Z,99.90
2022-09-09T02:11:50.338Z,99.90
2022-09-09T02:14:36.071Z,99.90
2022-09-09T02:17:11.613Z,99.90
2022-09-09T02:20:09.273Z,99.90
2022-09-09T02:22:46.602Z,99.90
2022-09-09T02:25:20.008Z,99.90
2022-09-09T02:27:50.578Z,99.90
2022-09-09T02:30:18.684Z,99.90
2022-09-09T02:32:57.931Z,99.90
2022-09-09T02:35:38.527Z,99.90
2022-09-09T02:38:11.023Z,99.90
2022-09-09T02:40:40.369Z,99.90
2022-09-09T02:43:10.445Z,99.90
2022-09-09T02:46:04.893Z,99.90
2022-09-09T02:48:52.026Z,99.90
2022-09-09T02:51:52.907Z,99.90
2022-09-09T02:54:32.109Z,99.90
2022-09-09T02:57:17.001Z,99.90
2022-09-09T02:59:45.735Z,99.90
2022-09-09T03:02:13.982Z,99.90
2022-09-09T03:04:45.436Z,99.90
2022-09-09T03:07:14.881Z,99.90
2022-09-09T03:09:43.047Z,99.90
2022-09-09T03:12:12.081Z,99.90
2022-09-09T03:14:40.157Z,99.90
2022-09-09T03:17:07.866Z,99.90
2022-09-09T03:19:41.097Z,99.90
2022-09-09T03:22:11.911Z,99.90
2022-09-09T03:24:42.604Z,99.90
2022-09-09T03:27:10.065Z,99.90
2022-09-09T03:29:39.227Z,99.90
2022-09-09T03:32:11.612Z,99.90
2022-09-09T03:34:43.132Z,99.90
2022-09-09T03:37:13.059Z,99.90
2022-09-09T03:39:40.642Z,99.90
2022-09-09T03:42:09.301Z,99.90
2022-09-09T03:44:36.655Z,99.90
2022-09-09T03:47:04.176Z,99.90
2022-09-09T03:49:31.417Z,99.90
2022-09-09T03:51:59.849Z,99.90
2022-09-09T03:54:28.168Z,99.90
2022-09-09T03:56:57.038Z,99.90
2022-09-09T03:59:24.402Z,99.90
2022-09-09T04:01:52.257Z,99.90
2022-09-09T04:04:20.858Z,99.90
2022-09-09T04:06:49.361Z,99.90
2022-09-09T04:09:16.641Z,99.90
2022-09-09T04:11:43.940Z,99.90
2022-09-09T04:14:11.151Z,99.90
2022-09-09T04:16:38.459Z,99.90
2022-09-09T04:19:08.647Z,99.90
2022-09-09T04:21:37.016Z,99.90
2022-09-09T04:24:04.409Z,99.90
2022-09-09T04:26:31.629Z,99.90
2022-09-09T04:29:00.417Z,99.90
2022-09-09T04:31:28.856Z,99.90
2022-09-09T04:33:57.614Z,99.90
2022-09-09T04:36:26.076Z,99.90
2022-09-09T04:38:58.587Z,99.90
2022-09-09T04:41:26.613Z,99.90
2022-09-09T04:43:55.241Z,99.90
2022-09-09T04:46:23.891Z,99.90
2022-09-09T04:48:53.092Z,99.90
2022-09-09T04:51:20.768Z,99.90
2022-09-09T04:53:51.676Z,99.90
2022-09-09T04:56:19.960Z,99.90
2022-09-09T04:58:56.578Z,99.90
2022-09-09T05:01:29.449Z,99.90
2022-09-09T05:04:03.760Z,99.90
2022-09-09T05:06:33.908Z,99.90
2022-09-09T05:09:01.997Z,99.90
2022-09-09T05:11:33.144Z,99.90
2022-09-09T05:14:20.578Z,99.90
2022-09-09T05:16:48.205Z,99.90
2022-09-09T05:19:15.977Z,99.90
2022-09-09T05:21:49.002Z,99.90
2022-09-09T05:24:19.297Z,99.90
2022-09-09T05:26:49.420Z,99.90
2022-09-09T05:29:20.266Z,99.90
2022-09-09T05:31:48.313Z,99.90
2022-09-09T05:34:18.791Z,99.90
2022-09-09T05:36:45.998Z,99.90
2022-09-09T05:39:13.510Z,99.90
2022-09-09T05:41:41.466Z,99.90
2022-09-09T05:44:09.345Z,99.90
2022-09-09T05:46:39.950Z,99.90
2022-09-09T05:49:07.371Z,99.90
2022-09-09T05:51:35.719Z,99.90
2022-09-09T05:54:08.144Z,99.90
2022-09-09T05:56:39.814Z,99.90
2022-09-09T05:59:08.784Z,99.90
2022-09-09T06:01:37.569Z,99.90
2022-09-09T06:04:07.815Z,99.90
2022-09-09T06:06:40.900Z,99.90
2022-09-09T06:09:16.280Z,99.90
2022-09-09T06:11:46.383Z,99.90
2022-09-09T06:14:15.593Z,99.90
2022-09-09T06:16:46.233Z,99.90
2022-09-09T06:19:21.445Z,99.90
2022-09-09T06:21:50.042Z,99.90
2022-09-09T06:24:20.256Z,99.90
2022-09-09T06:26:47.752Z,99.90
2022-09-09T06:29:22.364Z,99.90
2022-09-09T06:31:49.831Z,99.90
2022-09-09T06:34:21.964Z,99.90
2022-09-09T06:36:53.432Z,99.90
2022-09-09T06:39:20.784Z,99.90
2022-09-09T06:41:48.277Z,99.90
2022-09-09T06:44:35.795Z,99.90
2022-09-09T06:47:05.458Z,99.90
2022-09-09T06:49:34.095Z,99.90
2022-09-09T06:52:03.212Z,99.90
2022-09-09T06:54:31.277Z,99.90
2022-09-09T06:57:11.127Z,99.90
2022-09-09T06:59:49.341Z,99.90
2022-09-09T07:02:16.779Z,99.90
2022-09-09T07:04:45.294Z,99.90
2022-09-09T07:07:14.974Z,99.90
2022-09-09T07:09:42.340Z,99.90
2022-09-09T07:12:10.675Z,99.90
2022-09-09T07:14:43.791Z,99.90
2022-09-09T07:17:11.383Z,99.90
2022-09-09T07:19:40.917Z,99.90
2022-09-09T07:22:08.223Z,99.90
2022-09-09T07:24:36.299Z,99.90
2022-09-09T07:27:04.324Z,99.90
2022-09-09T07:29:31.540Z,99.90
2022-09-09T07:31:59.976Z,99.90
2022-09-09T07:34:32.748Z,99.90
2022-09-09T07:37:00.131Z,99.90
2022-09-09T07:39:27.515Z,99.90
2022-09-09T07:41:55.649Z,99.90
2022-09-09T07:44:28.444Z,99.90
2022-09-09T07:47:06.132Z,99.90
2022-09-09T07:49:37.769Z,99.90
2022-09-09T07:54:34.491Z,99.90
2022-09-09T07:57:05.245Z,99.90
2022-09-09T07:59:34.819Z,99.90
2022-09-09T08:02:03.286Z,99.90
2022-09-09T08:04:33.355Z,99.90
2022-09-09T08:07:04.825Z,99.90
2022-09-09T08:09:38.468Z,99.90
2022-09-09T08:12:14.065Z,99.80
2022-09-09T08:14:41.539Z,99.50
2022-09-09T08:17:09.055Z,99.30
2022-09-09T08:19:36.937Z,99.00
2022-09-09T08:22:08.779Z,98.80
2022-09-09T08:24:37.697Z,98.60
2022-09-09T08:27:05.003Z,98.20
2022-09-09T08:29:33.030Z,98.00
2022-09-09T08:32:00.893Z,97.70
2022-09-09T08:34:31.272Z,97.60
2022-09-09T08:37:00.761Z,97.40
2022-09-09T08:39:37.293Z,97.40
2022-09-09T08:42:34.933Z,97.10
2022-09-09T08:45:20.969Z,95.60
2022-09-09T08:48:10.537Z,95.40
2022-09-09T08:50:41.314Z,94.80
2022-09-09T08:53:23.594Z,94.60
2022-09-09T08:56:00.241Z,94.30
2022-09-09T08:58:36.387Z,94.30
2022-09-09T09:01:10.880Z,93.90
2022-09-09T09:03:56.088Z,93.50
2022-09-09T09:06:37.547Z,93.50
2022-09-09T09:09:17.103Z,93.40
2022-09-09T09:11:55.706Z,93.20
2022-09-09T09:14:26.357Z,92.90
2022-09-09T09:17:06.414Z,93.00
2022-09-09T09:19:36.677Z,92.80
2022-09-09T09:22:18.677Z,92.80
2022-09-09T09:24:50.539Z,92.80
2022-09-09T09:27:33.053Z,93.00
2022-09-09T09:30:30.798Z,92.90
2022-09-09T09:33:15.331Z,93.00
2022-09-09T09:35:44.337Z,92.70
2022-09-09T09:41:12.667Z,92.50
2022-09-09T09:43:43.507Z,92.70
2022-09-09T09:46:26.654Z,92.90
2022-09-09T09:49:06.826Z,92.80
2022-09-09T09:51:37.401Z,92.80
2022-09-09T09:54:29.899Z,92.90
2022-09-09T09:57:10.731Z,92.90
2022-09-09T09:59:40.993Z,92.80
2022-09-09T10:02:40.923Z,92.70
2022-09-09T10:05:26.851Z,92.70
2022-09-09T10:08:14.721Z,92.80
2022-09-09T10:11:11.217Z,92.60
2022-09-09T10:13:58.706Z,92.40
2022-09-09T10:17:02.883Z,92.20
2022-09-09T10:19:36.515Z,92.10
2022-09-09T10:22:29.889Z,91.80
2022-09-09T10:25:19.330Z,91.80
2022-09-09T10:28:06.089Z,91.80
2022-09-09T10:30:50.324Z,91.80
2022-09-09T10:33:32.819Z,91.90
2022-09-09T10:36:21.386Z,91.80
2022-09-09T10:39:11.729Z,91.80
2022-09-09T10:41:59.238Z,91.70
2022-09-09T10:44:47.403Z,91.70
2022-09-09T10:47:29.706Z,91.90
2022-09-09T10:49:59.806Z,91.70
2022-09-09T10:52:49.011Z,91.70
2022-09-09T10:55:31.406Z,91.40
2022-09-09T10:58:03.266Z,91.00
2022-09-09T11:00:43.965Z,91.10
2022-09-09T11:03:23.379Z,91.10
2022-09-09T11:05:54.475Z,91.10
2022-09-09T11:08:30.347Z,91.10
2022-09-09T11:11:12.827Z,90.90
2022-09-09T11:13:59.111Z,90.70
2022-09-09T11:16:45.738Z,90.70
2022-09-09T11:19:36.280Z,90.60
2022-09-09T11:22:30.312Z,90.20
2022-09-09T11:25:11.603Z,90.20
2022-09-09T11:27:57.376Z,89.80
2022-09-09T11:30:56.710Z,89.20
2022-09-09T11:33:42.666Z,88.60
2022-09-09T11:36:44.076Z,88.00
2022-09-09T11:39:47.300Z,88.20
2022-09-09T11:42:17.312Z,88.00
2022-09-09T11:44:44.919Z,88.00
2022-09-09T11:47:30.245Z,88.00
2022-09-09T11:50:23.787Z,87.90
2022-09-09T11:52:52.111Z,86.90
2022-09-09T11:55:34.358Z,86.50
2022-09-09T11:58:07.007Z,86.60
2022-09-09T12:00:46.204Z,86.40
2022-09-09T12:03:35.734Z,86.30
2022-09-09T12:06:34.915Z,85.90
2022-09-09T12:09:18.476Z,85.90
2022-09-09T12:11:45.694Z,86.20
2022-09-09T12:14:36.209Z,86.40
2022-09-09T12:17:21.466Z,86.30
2022-09-09T12:19:48.950Z,86.20
2022-09-09T12:22:35.135Z,86.40
2022-09-09T12:25:14.472Z,86.30
2022-09-09T12:27:58.462Z,86.20
2022-09-09T12:30:34.185Z,86.10
2022-09-09T12:33:13.828Z,85.90
2022-09-09T12:35:44.347Z,86.20
2022-09-09T12:38:23.769Z,86.20
2022-09-09T12:40:59.279Z,86.10
2022-09-09T12:43:27.822Z,85.80
2022-09-09T12:46:07.650Z,86.00
2022-09-09T12:48:39.667Z,86.30
2022-09-09T12:51:18.435Z,86.20
2022-09-09T12:53:46.973Z,86.40
2022-09-09T12:56:30.080Z,86.80
2022-09-09T12:58:59.210Z,86.90
2022-09-09T13:01:27.762Z,87.30
2022-09-09T13:03:56.204Z,87.60
2022-09-09T13:06:30.137Z,88.20
2022-09-09T13:09:00.262Z,89.40
2022-09-09T13:11:37.438Z,90.10
2022-09-09T13:14:05.070Z,90.40
2022-09-09T13:16:40.236Z,90.70
2022-09-09T13:19:14.547Z,90.90
2022-09-09T13:21:41.842Z,91.00
2022-09-09T13:24:33.667Z,91.10
2022-09-09T13:27:06.523Z,91.30
2022-09-09T13:29:33.940Z,91.30
2022-09-09T13:32:17.114Z,91.20
2022-09-09T13:34:55.349Z,90.40
2022-09-09T13:37:35.854Z,90.10
2022-09-09T13:40:06.509Z,90.10
2022-09-09T13:42:39.829Z,90.00
2022-09-09T13:45:17.958Z,90.00
2022-09-09T13:47:46.187Z,90.00
2022-09-09T13:50:30.583Z,90.10
2022-09-09T13:52:59.955Z,90.00
2022-09-09T13:55:29.077Z,88.70
2022-09-09T13:58:01.475Z,87.50
2022-09-09T14:00:33.807Z,86.70
2022-09-09T14:03:03.094Z,85.60
2022-09-09T14:05:33.868Z,84.90
2022-09-09T14:08:05.149Z,85.00
2022-09-09T14:10:32.773Z,84.80
2022-09-09T14:13:00.138Z,85.00
2022-09-09T14:15:28.089Z,85.30
2022-09-09T14:17:55.514Z,85.70
2022-09-09T14:20:22.731Z,86.50
2022-09-09T14:22:49.881Z,89.10
2022-09-09T14:25:17.212Z,90.30
2022-09-09T14:27:44.563Z,90.60
2022-09-09T14:30:12.212Z,91.20
2022-09-09T14:32:39.458Z,91.90
2022-09-09T14:35:07.045Z,93.50
2022-09-09T14:37:34.221Z,94.50
2022-09-09T14:40:01.781Z,95.40
2022-09-09T14:42:31.136Z,96.40
2022-09-09T14:44:58.379Z,97.00
2022-09-09T14:47:27.071Z,97.30
2022-09-09T14:49:54.492Z,97.60
2022-09-09T14:52:22.244Z,97.90
2022-09-09T14:54:50.476Z,98.40
2022-09-09T14:57:17.718Z,98.60
2022-09-09T14:59:44.917Z,98.60
2022-09-09T15:02:14.324Z,98.70
2022-09-09T15:04:41.796Z,98.90
2022-09-09T15:07:08.948Z,99.30
2022-09-09T15:09:38.114Z,99.30
2022-09-09T15:12:05.705Z,99.50
2022-09-09T15:14:33.763Z,99.50
2022-09-09T15:17:01.994Z,99.50
2022-09-09T15:19:29.208Z,99.60
2022-09-09T15:21:56.669Z,99.70
2022-09-09T15:24:23.977Z,99.90
2022-09-09T15:26:51.171Z,99.90
2022-09-09T15:29:18.384Z,99.90
2022-09-09T15:31:45.686Z,99.90
2022-09-09T15:34:14.636Z,99.90
2022-09-09T15:36:44.495Z,99.90
2022-09-09T15:39:13.956Z,99.90
2022-09-09T15:41:41.696Z,99.90
2022-09-09T15:44:11.322Z,99.90
2022-09-09T15:46:46.936Z,99.90
2022-09-09T15:49:15.821Z,99.90
2022-09-09T15:51:48.220Z,99.90
2022-09-09T15:54:18.893Z,99.90
2022-09-09T15:56:49.293Z,99.90
2022-09-09T15:59:16.988Z,99.90
2022-09-09T16:01:44.895Z,99.90
2022-09-09T16:04:12.903Z,99.90
2022-09-09T16:06:40.448Z,99.90
2022-09-09T16:09:09.106Z,99.90
2022-09-09T16:11:38.891Z,99.90
2022-09-09T16:14:07.547Z,99.90
2022-09-09T16:16:36.246Z,99.90
2022-09-09T16:19:10.389Z,99.90
2022-09-09T16:21:41.023Z,99.90
2022-09-09T16:24:10.386Z,99.90
2022-09-09T16:26:39.863Z,99.90
2022-09-09T16:29:07.339Z,99.90
2022-09-09T16:31:34.928Z,99.90
2022-09-09T16:34:04.173Z,99.90
2022-09-09T16:36:35.065Z,99.90
2022-09-09T16:39:06.229Z,99.90
2022-09-09T16:41:34.380Z,99.90
2022-09-09T16:44:04.617Z,99.90
2022-09-09T16:46:35.214Z,99.90
2022-09-09T16:49:04.853Z,99.90
2022-09-09T16:51:47.999Z,99.90
2022-09-09T16:54:17.959Z,99.90
2022-09-09T16:56:47.659Z,99.90
2022-09-09T16:59:15.873Z,99.90
2022-09-09T17:01:44.492Z,99.90
2022-09-09T17:04:21.351Z,99.90
2022-09-09T17:06:50.407Z,99.90
2022-09-09T17:09:18.670Z,99.90
2022-09-09T17:11:46.506Z,99.90
2022-09-09T17:14:17.636Z,99.90
2022-09-09T17:16:45.627Z,99.90
2022-09-09T17:19:13.734Z,99.90
2022-09-09T17:21:55.005Z,99.90
2022-09-09T17:24:29.936Z,99.90
2022-09-09T17:26:58.534Z,99.90
2022-09-09T17:29:26.294Z,99.90
2022-09-09T17:31:53.840Z,99.90
2022-09-09T17:34:21.147Z,99.90
2022-09-09T17:36:49.064Z,99.90
2022-09-09T17:39:17.473Z,99.90
2022-09-09T17:41:44.773Z,99.90
2022-09-09T17:44:12.389Z,99.90
2022-09-09T17:46:41.922Z,99.90
2022-09-09T17:49:13.075Z,99.90
2022-09-09T17:51:42.573Z,99.90
2022-09-09T17:54:13.013Z,99.90
2022-09-09T17:56:42.238Z,99.90
2022-09-09T17:59:12.083Z,99.90
2022-09-09T18:01:41.831Z,99.90
2022-09-09T18:04:10.852Z,99.90
2022-09-09T18:06:46.685Z,99.90
2022-09-09T18:09:16.795Z,99.90
2022-09-09T18:11:47.253Z,99.90
2022-09-09T18:14:24.744Z,99.90
2022-09-09T18:16:52.781Z,99.90
2022-09-09T18:19:23.653Z,99.90
2022-09-09T18:21:51.249Z,99.90
2022-09-09T18:24:21.083Z,99.90
2022-09-09T18:26:50.116Z,99.90
2022-09-09T18:29:21.339Z,99.90
2022-09-09T18:31:49.137Z,99.90
2022-09-09T18:34:19.379Z,99.90
2022-09-09T18:36:54.529Z,99.90
2022-09-09T18:39:27.602Z,99.90
2022-09-09T18:41:58.914Z,99.90
2022-09-09T18:44:28.624Z,99.90
2022-09-09T18:46:56.110Z,99.90
2022-09-09T18:49:25.153Z,99.90
2022-09-09T18:51:52.896Z,99.90
2022-09-09T18:54:26.581Z,99.90
2022-09-09T18:56:53.873Z,99.90
2022-09-09T18:59:23.978Z,99.90
2022-09-09T19:01:52.844Z,99.90
2022-09-09T19:04:22.387Z,99.90
2022-09-09T19:06:57.524Z,99.90
2022-09-09T19:09:28.308Z,99.90
2022-09-09T19:11:55.799Z,99.90
2022-09-09T19:14:23.045Z,99.90
2022-09-09T19:16:54.781Z,99.90
2022-09-09T19:19:25.238Z,99.90
2022-09-09T19:21:52.793Z,99.90
2022-09-09T19:24:23.721Z,99.90
2022-09-09T19:26:53.022Z,99.90
2022-09-09T19:29:28.881Z,99.90
2022-09-09T19:34:48.186Z,99.90
2022-09-09T19:37:18.681Z,99.90
2022-09-09T19:39:48.228Z,99.90
2022-09-09T19:42:15.837Z,99.90
2022-09-09T19:44:43.635Z,99.90
2022-09-09T19:47:11.150Z,99.90
2022-09-09T19:49:38.579Z,99.90
2022-09-09T19:52:05.899Z,99.90
2022-09-09T19:54:33.265Z,99.90
2022-09-09T19:57:01.183Z,99.90
2022-09-09T19:59:28.411Z,99.90
2022-09-09T20:01:59.214Z,99.90
2022-09-09T20:04:28.221Z,99.90
2022-09-09T20:06:55.428Z,99.90
2022-09-09T20:09:22.675Z,99.90
2022-09-09T20:11:50.002Z,99.90
2022-09-09T20:14:18.145Z,99.90
2022-09-09T20:16:46.528Z,99.90
2022-09-09T20:19:16.469Z,99.90
2022-09-09T20:21:49.563Z,99.90
2022-09-09T20:24:19.745Z,99.90
2022-09-09T20:26:49.056Z,99.90
2022-09-09T20:29:19.209Z,99.90
2022-09-09T20:31:47.310Z,99.90
2022-09-09T20:34:21.671Z,99.90
2022-09-09T20:36:50.851Z,99.90
2022-09-09T20:39:22.454Z,99.90
2022-09-09T20:41:50.244Z,99.90
2022-09-09T20:44:19.970Z,99.90
2022-09-09T20:46:49.473Z,99.90
2022-09-09T20:49:22.357Z,99.90
2022-09-09T20:51:50.505Z,99.90
2022-09-09T20:54:23.267Z,99.90
2022-09-09T20:56:55.012Z,99.90
2022-09-09T20:59:28.114Z,99.90
2022-09-09T21:01:56.838Z,99.90
2022-09-09T21:04:24.963Z,99.90
2022-09-09T21:06:53.360Z,99.90
2022-09-09T21:09:23.099Z,99.90
2022-09-09T21:11:51.049Z,99.90
2022-09-09T21:14:18.256Z,99.90
2022-09-09T21:16:45.787Z,99.90
2022-09-09T21:19:13.012Z,99.90
2022-09-09T21:21:40.351Z,99.90
2022-09-09T21:24:07.578Z,99.90
2022-09-09T21:26:35.678Z,99.90
2022-09-09T21:29:03.037Z,99.90
2022-09-09T21:31:31.336Z,99.90
2022-09-09T21:33:58.932Z,99.90
2022-09-09T21:36:28.233Z,99.90
2022-09-09T21:38:56.643Z,99.90
2022-09-09T21:41:23.848Z,99.90
2022-09-09T21:43:55.027Z,99.90
2022-09-09T21:46:23.280Z,99.90
2022-09-09T21:48:51.037Z,99.90
2022-09-09T21:51:18.876Z,99.90
2022-09-09T21:53:46.218Z,99.90
2022-09-09T21:56:16.083Z,99.90
2022-09-09T21:58:43.957Z,99.90
2022-09-09T22:01:14.557Z,99.90
2022-09-09T22:03:43.079Z,99.90
2022-09-09T22:06:13.184Z,99.90
2022-09-09T22:08:40.474Z,99.90
2022-09-09T22:11:10.219Z,99.90
2022-09-09T22:13:38.380Z,99.90
2022-09-09T22:16:07.951Z,99.90
2022-09-09T22:18:36.008Z,99.90
2022-09-09T22:21:12.084Z,99.90
2022-09-09T22:23:39.326Z,99.90
2022-09-09T22:26:07.598Z,99.90
2022-09-09T22:28:35.623Z,99.90
2022-09-09T22:31:02.962Z,99.90
2022-09-09T22:33:30.314Z,99.90
2022-09-09T22:35:57.522Z,99.90
2022-09-09T22:38:24.822Z,99.90
2022-09-09T22:40:52.575Z,99.90
2022-09-09T22:43:21.984Z,99.90
2022-09-09T22:45:50.802Z,99.90
2022-09-09T22:48:18.217Z,99.90
2022-09-09T22:50:46.676Z,99.90
2022-09-09T22:53:15.522Z,99.90
2022-09-09T22:55:43.711Z,99.90
2022-09-09T22:58:11.019Z,99.90
2022-09-09T23:00:41.164Z,99.90
2022-09-09T23:03:08.590Z,99.90
2022-09-09T23:05:38.468Z,99.90
2022-09-09T23:08:05.732Z,99.90
2022-09-09T23:10:33.672Z,99.90
2022-09-09T23:13:00.893Z,99.90
2022-09-09T23:15:31.266Z,99.90
2022-09-09T23:17:58.606Z,99.90
2022-09-09T23:20:26.793Z,99.90
2022-09-09T23:22:54.355Z,99.90
2022-09-09T23:25:22.764Z,99.90
2022-09-09T23:27:49.956Z,99.90
2022-09-09T23:30:18.233Z,99.90
2022-09-09T23:32:48.315Z,99.90
2022-09-09T23:35:15.922Z,99.90
2022-09-09T23:37:43.092Z,99.90
2022-09-09T23:40:10.885Z,99.90
2022-09-09T23:42:38.401Z,99.90
2022-09-09T23:45:06.493Z,99.90
2022-09-09T23:47:33.659Z,99.90
2022-09-09T23:50:01.605Z,99.90
2022-09-09T23:52:28.796Z,99.90
2022-09-09T23:54:57.532Z,99.90
2022-09-09T23:57:26.213Z,99.90
2022-09-09T23:59:53.409Z,99.90
